createdAt,value
2019-05-03T00:02:24.245Z,2.45
2019-05-03T00:04:54.980Z,2.70
2019-05-03T00:07:23.974Z,3.10
2019-05-03T00:09:52.968Z,2.90
2019-05-03T00:12:22.229Z,2.95
2019-05-03T00:14:55.868Z,2.30
2019-05-03T00:17:24.862Z,2.58
2019-05-03T00:19:53.743Z,2.60
2019-05-03T00:22:22.639Z,2.60
2019-05-03T00:25:04.584Z,2.40
2019-05-03T00:27:21.954Z,2.55
2019-05-03T00:29:52.385Z,2.70
2019-05-03T00:32:21.743Z,3.10
2019-05-03T00:34:58.264Z,2.50
2019-05-03T00:37:28.790Z,2.58
2019-05-03T00:40:05.136Z,2.65
2019-05-03T00:42:34.147Z,2.95
2019-05-03T00:45:03.324Z,2.70
2019-05-03T00:47:32.830Z,2.77
2019-05-03T00:50:02.779Z,2.65
2019-05-03T00:52:32.066Z,2.87
2019-05-03T00:55:02.201Z,2.62
2019-05-03T00:57:32.290Z,3.08
2019-05-03T01:00:02.066Z,2.58
2019-05-03T01:02:31.799Z,2.17
2019-05-03T01:05:02.855Z,2.55
2019-05-03T01:07:32.006Z,2.00
2019-05-03T01:10:02.792Z,2.22
2019-05-03T01:12:32.387Z,2.05
2019-05-03T01:15:03.011Z,2.30
2019-05-03T01:17:32.728Z,1.90
2019-05-03T01:20:02.792Z,2.37
2019-05-03T01:22:32.194Z,2.27
2019-05-03T01:25:02.923Z,2.27
2019-05-03T01:27:32.544Z,1.95
2019-05-03T01:30:02.945Z,1.30
2019-05-03T01:32:32.989Z,1.80
2019-05-03T01:35:03.170Z,1.50
2019-05-03T01:37:32.358Z,1.37
2019-05-03T01:40:02.407Z,0.80
2019-05-03T01:42:32.113Z,0.70
2019-05-03T01:45:01.880Z,0.70
2019-05-03T01:47:32.739Z,0.90
2019-05-03T01:50:15.462Z,0.78
2019-05-03T01:52:52.461Z,0.90
2019-05-03T01:55:23.175Z,1.10
2019-05-03T01:57:52.466Z,0.78
2019-05-03T02:00:25.868Z,1.20
2019-05-03T02:03:02.446Z,1.00
2019-05-03T02:05:44.775Z,0.80
2019-05-03T02:08:14.559Z,0.80
2019-05-03T02:10:44.239Z,0.90
2019-05-03T02:13:13.161Z,1.15
2019-05-03T02:15:42.307Z,1.12
2019-05-03T02:18:14.775Z,1.05
2019-05-03T02:20:41.914Z,0.75
2019-05-03T02:23:11.916Z,0.93
2019-05-03T02:25:41.847Z,1.20
2019-05-03T02:28:12.666Z,1.37
2019-05-03T02:30:44.091Z,1.20
2019-05-03T02:33:13.528Z,1.30
2019-05-03T02:35:43.116Z,1.27
2019-05-03T02:38:12.981Z,0.98
2019-05-03T02:40:43.156Z,1.15
2019-05-03T02:43:16.369Z,1.62
2019-05-03T02:48:36.224Z,1.15
2019-05-03T02:51:06.327Z,1.15
2019-05-03T02:53:36.686Z,1.10
2019-05-03T02:56:17.215Z,2.22
2019-05-03T02:58:35.993Z,1.70
2019-05-03T03:01:06.730Z,1.77
2019-05-03T03:03:36.642Z,1.50
2019-05-03T03:06:06.856Z,1.20
2019-05-03T03:08:37.811Z,1.40
2019-05-03T03:11:08.477Z,1.37
2019-05-03T03:13:39.059Z,1.00
2019-05-03T03:16:09.960Z,1.50
2019-05-03T03:18:40.319Z,1.22
2019-05-03T03:21:16.415Z,1.27
2019-05-03T03:24:07.090Z,2.08
2019-05-03T03:26:42.855Z,1.72
2019-05-03T03:29:11.463Z,1.40
2019-05-03T03:31:52.198Z,1.40
2019-05-03T03:34:28.121Z,2.10
2019-05-03T03:37:03.784Z,1.62
2019-05-03T03:39:26.322Z,1.40
2019-05-03T03:42:16.057Z,1.65
2019-05-03T03:44:46.016Z,1.42
2019-05-03T03:47:16.761Z,1.45
2019-05-03T03:49:48.119Z,2.35
2019-05-03T03:52:19.367Z,2.00
2019-05-03T03:54:50.115Z,2.77
2019-05-03T03:57:20.157Z,5.37
2019-05-03T03:59:49.707Z,1.60
2019-05-03T04:02:18.491Z,1.67
2019-05-03T04:04:47.297Z,1.40
2019-05-03T04:07:16.516Z,1.52
2019-05-03T04:09:45.864Z,2.33
2019-05-03T04:12:35.209Z,3.55
2019-05-03T04:15:07.441Z,2.40
2019-05-03T04:17:46.690Z,1.65
2019-05-03T04:20:17.308Z,1.77
2019-05-03T04:22:46.299Z,1.45
2019-05-03T04:25:15.637Z,2.35
2019-05-03T04:27:45.653Z,2.10
2019-05-03T04:30:16.586Z,4.30
2019-05-03T04:32:45.547Z,2.30
2019-05-03T04:35:16.457Z,4.70
2019-05-03T04:37:45.515Z,2.42
2019-05-03T04:40:15.624Z,3.75
2019-05-03T04:42:46.347Z,2.55
2019-05-03T04:45:16.507Z,2.22
2019-05-03T04:47:46.344Z,1.55
2019-05-03T04:50:16.264Z,1.77
2019-05-03T04:52:46.431Z,2.20
2019-05-03T04:55:16.182Z,1.95
2019-05-03T04:57:49.158Z,1.57
2019-05-03T05:00:16.132Z,1.70
2019-05-03T05:02:45.904Z,2.00
2019-05-03T05:05:15.554Z,2.35
2019-05-03T05:07:45.615Z,1.40
2019-05-03T05:10:15.630Z,2.30
2019-05-03T05:12:45.787Z,1.30
2019-05-03T05:15:15.633Z,1.60
2019-05-03T05:17:46.574Z,2.20
2019-05-03T05:20:17.411Z,2.10
2019-05-03T05:22:46.403Z,2.17
2019-05-03T05:25:20.009Z,3.67
2019-05-03T05:28:07.123Z,1.70
2019-05-03T05:30:36.115Z,1.90
2019-05-03T05:33:06.643Z,2.05
2019-05-03T05:35:35.636Z,2.20
2019-05-03T05:38:04.739Z,1.77
2019-05-03T05:40:34.889Z,1.30
2019-05-03T05:43:04.905Z,1.45
2019-05-03T05:45:34.958Z,1.17
2019-05-03T05:48:05.619Z,1.30
2019-05-03T05:50:39.212Z,1.10
2019-05-03T05:53:08.207Z,1.30
2019-05-03T05:55:41.700Z,1.77
2019-05-03T05:58:21.248Z,1.70
2019-05-03T06:00:55.165Z,2.92
2019-05-03T06:03:25.267Z,2.42
2019-05-03T06:05:55.595Z,2.35
2019-05-03T06:08:41.277Z,1.70
2019-05-03T06:11:26.859Z,3.00
2019-05-03T06:13:59.819Z,2.02
2019-05-03T06:16:34.837Z,2.02
2019-05-03T06:19:05.512Z,2.30
2019-05-03T06:21:36.042Z,3.15
2019-05-03T06:24:15.876Z,1.47
2019-05-03T06:26:46.323Z,1.67
2019-05-03T06:29:15.214Z,2.37
2019-05-03T06:31:48.503Z,1.77
2019-05-03T06:34:17.499Z,2.10
2019-05-03T06:36:48.025Z,1.90
2019-05-03T06:39:16.780Z,1.50
2019-05-03T06:41:45.707Z,1.82
2019-05-03T06:44:19.098Z,1.60
2019-05-03T06:46:49.229Z,1.40
2019-05-03T06:49:18.104Z,1.72
2019-05-03T06:51:49.631Z,1.82
2019-05-03T06:54:20.738Z,1.40
2019-05-03T06:56:48.266Z,1.92
2019-05-03T06:59:18.684Z,1.35
2019-05-03T07:01:49.200Z,1.20
2019-05-03T07:04:24.418Z,1.32
2019-05-03T07:07:00.212Z,1.85
2019-05-03T07:09:45.487Z,3.12
2019-05-03T07:12:14.939Z,2.67
2019-05-03T07:14:45.019Z,2.00
2019-05-03T07:17:14.509Z,1.98
2019-05-03T07:19:45.784Z,1.90
2019-05-03T07:22:15.227Z,1.90
2019-05-03T07:24:45.595Z,1.95
2019-05-03T07:27:20.419Z,1.50
2019-05-03T07:29:49.413Z,2.15
2019-05-03T07:32:18.409Z,1.75
2019-05-03T07:34:47.406Z,1.92
2019-05-03T07:37:16.391Z,2.35
2019-05-03T07:39:45.407Z,1.80
2019-05-03T07:42:15.628Z,3.20
2019-05-03T07:44:45.047Z,2.62
2019-05-03T07:47:14.887Z,2.27
2019-05-03T07:49:44.717Z,2.35
2019-05-03T07:52:14.795Z,2.20
2019-05-03T07:54:45.156Z,1.92
2019-05-03T07:57:32.606Z,4.05
2019-05-03T08:00:01.488Z,4.37
2019-05-03T08:02:30.383Z,3.70
2019-05-03T08:04:59.280Z,3.47
2019-05-03T08:07:28.271Z,2.70
2019-05-03T08:09:57.265Z,2.33
2019-05-03T08:12:26.258Z,2.25
2019-05-03T08:14:55.263Z,2.98
2019-05-03T08:17:25.582Z,5.62
2019-05-03T08:19:55.196Z,1.95
2019-05-03T08:22:25.506Z,1.70
2019-05-03T08:24:55.532Z,1.27
2019-05-03T08:27:25.438Z,1.70
2019-05-03T08:29:55.715Z,1.47
2019-05-03T08:32:29.260Z,1.55
2019-05-03T08:35:11.771Z,1.40
2019-05-03T08:37:51.308Z,1.50
2019-05-03T08:40:21.430Z,1.50
2019-05-03T08:42:50.423Z,2.92
2019-05-03T08:45:18.899Z,1.70
2019-05-03T08:47:47.376Z,0.90
2019-05-03T08:50:21.219Z,1.10
2019-05-03T08:52:46.396Z,0.90
2019-05-03T08:55:15.802Z,1.50
2019-05-03T08:57:45.098Z,1.50
2019-05-03T09:00:15.833Z,1.70
2019-05-03T09:02:44.889Z,2.50
2019-05-03T09:05:15.723Z,1.80
2019-05-03T09:07:44.836Z,7.40
2019-05-03T09:10:18.661Z,1.50
2019-05-03T09:13:07.322Z,2.55
2019-05-03T09:15:37.853Z,2.17
2019-05-03T09:18:06.967Z,2.42
2019-05-03T09:20:35.832Z,1.75
2019-05-03T09:23:05.474Z,1.20
2019-05-03T09:25:35.491Z,1.45
2019-05-03T09:28:05.104Z,1.45
2019-05-03T09:30:35.761Z,1.27
2019-05-03T09:33:08.407Z,1.05
2019-05-03T09:35:36.068Z,1.65
2019-05-03T09:38:05.894Z,1.37
2019-05-03T09:40:35.363Z,3.77
2019-05-03T09:43:04.645Z,1.42
2019-05-03T09:45:35.279Z,1.90
2019-05-03T09:48:05.717Z,1.52
2019-05-03T09:50:35.893Z,1.45
2019-05-03T09:53:05.548Z,1.70
2019-05-03T09:55:36.829Z,1.90
2019-05-03T09:58:05.761Z,1.65
2019-05-03T10:00:55.508Z,1.10
2019-05-03T10:03:24.562Z,1.30
2019-05-03T10:05:55.392Z,1.52
2019-05-03T10:08:27.463Z,1.52
2019-05-03T10:11:11.820Z,2.50
2019-05-03T10:13:41.922Z,2.00
2019-05-03T10:16:11.335Z,2.02
2019-05-03T10:18:40.329Z,1.65
2019-05-03T10:21:09.322Z,2.33
2019-05-03T10:23:39.545Z,4.50
2019-05-03T10:26:08.599Z,1.95
2019-05-03T10:28:37.729Z,1.90
2019-05-03T10:31:07.969Z,1.30
2019-05-03T10:33:53.435Z,1.55
2019-05-03T10:36:31.028Z,1.70
2019-05-03T10:38:59.923Z,1.92
2019-05-03T10:41:28.915Z,1.90
2019-05-03T10:43:57.907Z,1.62
2019-05-03T10:46:26.900Z,1.52
2019-05-03T10:48:55.972Z,3.00
2019-05-03T10:51:26.731Z,1.98
2019-05-03T10:53:57.262Z,1.20
2019-05-03T10:56:27.789Z,1.50
2019-05-03T10:59:01.392Z,1.52
2019-05-03T11:01:45.265Z,1.65
2019-05-03T11:04:14.872Z,2.72
2019-05-03T11:06:45.755Z,2.70
2019-05-03T11:09:15.293Z,3.08
2019-05-03T11:11:47.364Z,4.10
2019-05-03T11:14:35.594Z,3.77
2019-05-03T11:17:05.679Z,4.03
2019-05-03T11:19:34.897Z,3.40
2019-05-03T11:22:05.469Z,2.72
2019-05-03T11:24:34.999Z,1.45
2019-05-03T11:27:05.779Z,1.52
2019-05-03T11:29:35.617Z,1.62
2019-05-03T11:32:25.071Z,2.08
2019-05-03T11:34:58.257Z,2.17
2019-05-03T11:37:40.461Z,1.82
2019-05-03T11:40:09.962Z,2.08
2019-05-03T11:42:38.851Z,3.02
2019-05-03T11:45:07.934Z,1.80
2019-05-03T11:47:36.821Z,1.60
2019-05-03T11:50:06.987Z,2.20
2019-05-03T11:52:35.956Z,2.05
2019-05-03T11:55:11.480Z,1.75
2019-05-03T11:57:36.822Z,2.05
2019-05-03T12:00:08.331Z,1.70
2019-05-03T12:02:38.783Z,1.33
2019-05-03T12:05:12.871Z,1.60
2019-05-03T12:07:41.894Z,1.80
2019-05-03T12:10:20.623Z,1.80
2019-05-03T12:12:44.795Z,1.70
2019-05-03T12:15:15.168Z,2.80
2019-05-03T12:17:54.233Z,3.00
2019-05-03T12:20:17.805Z,3.25
2019-05-03T12:22:47.542Z,3.30
2019-05-03T12:25:23.460Z,1.47
2019-05-03T12:27:52.983Z,1.72
2019-05-03T12:30:24.924Z,1.90
2019-05-03T12:32:54.481Z,1.47
2019-05-03T12:35:24.701Z,1.30
2019-05-03T12:37:55.352Z,1.10
2019-05-03T12:40:25.490Z,2.62
2019-05-03T12:42:55.205Z,1.70
2019-05-03T12:45:24.916Z,1.85
2019-05-03T12:47:55.845Z,2.87
2019-05-03T12:50:25.155Z,2.05
2019-05-03T12:52:55.493Z,1.20
2019-05-03T12:55:24.830Z,1.42
2019-05-03T12:57:55.290Z,1.30
2019-05-03T13:00:38.367Z,1.30
2019-05-03T13:05:36.967Z,1.12
2019-05-03T13:08:31.774Z,1.27
2019-05-03T13:11:00.756Z,1.55
2019-05-03T13:13:29.750Z,1.62
2019-05-03T13:15:58.742Z,2.42
2019-05-03T13:18:27.748Z,3.80
2019-05-03T13:20:56.631Z,2.08
2019-05-03T13:23:25.563Z,2.37
2019-05-03T13:25:54.714Z,1.55
2019-05-03T13:28:25.335Z,2.02
2019-05-03T13:30:54.579Z,1.98
2019-05-03T13:33:23.637Z,1.60
2019-05-03T13:35:52.532Z,1.50
2019-05-03T13:38:21.402Z,1.75
2019-05-03T13:40:50.307Z,1.98
2019-05-03T13:43:19.383Z,1.65
2019-05-03T13:45:48.301Z,1.90
2019-05-03T13:48:20.999Z,1.50
2019-05-03T13:50:47.730Z,5.53
2019-05-03T13:53:16.713Z,1.55
2019-05-03T13:55:45.709Z,4.00
2019-05-03T13:58:14.822Z,2.12
2019-05-03T14:00:45.639Z,1.52
2019-05-03T14:03:15.194Z,1.70
2019-05-03T14:05:44.686Z,1.65
2019-05-03T14:08:15.642Z,1.70
2019-05-03T14:10:45.531Z,1.72
2019-05-03T14:13:14.799Z,1.45
2019-05-03T14:15:45.316Z,5.30
2019-05-03T14:18:15.240Z,2.50
2019-05-03T14:20:52.224Z,2.02
2019-05-03T14:23:21.219Z,2.40
2019-05-03T14:25:50.325Z,1.72
2019-05-03T14:28:19.207Z,2.67
2019-05-03T14:30:48.175Z,2.80
2019-05-03T14:33:16.984Z,1.62
2019-05-03T14:35:45.875Z,2.50
2019-05-03T14:38:15.204Z,2.90
2019-05-03T14:40:44.901Z,4.62
2019-05-03T14:43:16.063Z,7.47
2019-05-03T14:45:45.019Z,6.95
2019-05-03T14:48:15.207Z,7.87
2019-05-03T14:50:45.574Z,7.53
2019-05-03T14:53:14.822Z,5.72
2019-05-03T14:55:51.337Z,5.58
2019-05-03T14:58:35.157Z,10.88
2019-05-03T15:01:21.372Z,6.00
2019-05-03T15:03:50.371Z,5.33
2019-05-03T15:06:19.259Z,6.60
2019-05-03T15:08:48.254Z,10.28
2019-05-03T15:11:17.245Z,4.22
2019-05-03T15:13:46.253Z,4.00
2019-05-03T15:16:15.233Z,1.95
2019-05-03T15:18:45.350Z,2.00
2019-05-03T15:21:14.633Z,2.70
2019-05-03T15:23:45.317Z,3.00
2019-05-03T15:26:14.275Z,1.67
2019-05-03T15:28:44.896Z,2.15
2019-05-03T15:31:13.782Z,8.35
2019-05-03T15:33:44.782Z,5.00
2019-05-03T15:36:15.452Z,4.03
2019-05-03T15:38:44.608Z,2.90
2019-05-03T15:41:14.665Z,3.17
2019-05-03T15:43:51.154Z,4.40
2019-05-03T15:46:40.012Z,4.20
2019-05-03T15:49:09.004Z,5.05
2019-05-03T15:51:38.000Z,4.45
2019-05-03T15:54:06.759Z,4.33
2019-05-03T15:56:35.677Z,6.25
2019-05-03T15:59:04.673Z,5.35
2019-05-03T16:01:35.369Z,6.03
2019-05-03T16:04:04.801Z,7.58
2019-05-03T16:06:33.800Z,5.20
2019-05-03T16:09:04.473Z,5.65
2019-05-03T16:11:34.389Z,4.83
2019-05-03T16:14:04.535Z,3.90
2019-05-03T16:16:35.247Z,8.43
2019-05-03T16:19:05.462Z,2.62
2019-05-03T16:21:36.840Z,3.98
2019-05-03T16:24:05.761Z,3.70
2019-05-03T16:26:36.288Z,2.33
2019-05-03T16:29:12.555Z,3.62
2019-05-03T16:31:41.549Z,3.23
2019-05-03T16:34:10.431Z,2.60
2019-05-03T16:36:39.436Z,4.17
2019-05-03T16:39:08.199Z,3.10
2019-05-03T16:41:37.226Z,6.85
2019-05-03T16:44:06.216Z,8.45
2019-05-03T16:46:35.010Z,6.58
2019-05-03T16:49:04.491Z,9.75
2019-05-03T16:51:34.955Z,10.60
2019-05-03T16:54:05.570Z,8.95
2019-05-03T16:56:35.295Z,6.15
2019-05-03T16:59:05.732Z,6.47
2019-05-03T17:01:35.224Z,4.47
2019-05-03T17:04:25.059Z,2.42
2019-05-03T17:07:07.233Z,1.95
2019-05-03T17:09:52.992Z,2.15
2019-05-03T17:12:25.923Z,2.42
2019-05-03T17:14:56.999Z,2.60
2019-05-03T17:17:25.413Z,3.40
2019-05-03T17:19:55.131Z,5.95
2019-05-03T17:22:25.209Z,6.10
2019-05-03T17:24:54.154Z,5.22
2019-05-03T17:27:24.874Z,3.58
2019-05-03T17:29:55.177Z,4.10
2019-05-03T17:32:24.550Z,4.25
2019-05-03T17:34:54.855Z,3.20
2019-05-03T17:37:25.673Z,2.90
2019-05-03T17:40:14.990Z,3.40
2019-05-03T17:42:51.574Z,3.00
2019-05-03T17:45:22.001Z,3.17
2019-05-03T17:47:50.791Z,2.98
2019-05-03T17:50:19.878Z,4.12
2019-05-03T17:52:54.576Z,3.67
2019-05-03T17:55:37.007Z,4.75
2019-05-03T17:58:16.533Z,8.35
2019-05-03T18:00:47.084Z,7.78
2019-05-03T18:03:17.108Z,11.12
2019-05-03T18:05:53.709Z,7.15
2019-05-03T18:08:26.997Z,7.47
2019-05-03T18:10:57.433Z,4.30
2019-05-03T18:13:26.262Z,3.22
2019-05-03T18:15:55.045Z,3.70
2019-05-03T18:18:25.496Z,4.30
2019-05-03T18:20:55.457Z,4.35
2019-05-03T18:23:24.663Z,4.80
2019-05-03T18:25:54.818Z,4.67
2019-05-03T18:28:25.015Z,4.33
2019-05-03T18:30:54.711Z,4.50
2019-05-03T18:33:24.718Z,4.50
2019-05-03T18:35:55.057Z,5.45
2019-05-03T18:38:25.379Z,5.47
2019-05-03T18:40:55.267Z,8.10
2019-05-03T18:43:41.232Z,9.78
2019-05-03T18:46:31.030Z,7.58
2019-05-03T18:48:59.801Z,7.22
2019-05-03T18:51:28.586Z,6.65
2019-05-03T18:53:57.418Z,7.05
2019-05-03T18:56:26.304Z,8.20
2019-05-03T18:58:55.170Z,8.20
2019-05-03T19:01:25.359Z,9.93
2019-05-03T19:03:56.006Z,12.40
2019-05-03T19:06:24.905Z,13.45
2019-05-03T19:08:58.131Z,11.18
2019-05-03T19:11:28.621Z,10.28
2019-05-03T19:14:05.095Z,8.93
2019-05-03T19:16:51.758Z,11.08
2019-05-03T19:19:22.164Z,15.15
2019-05-03T19:21:51.004Z,12.53
2019-05-03T19:24:20.318Z,12.00
2019-05-03T19:26:49.090Z,19.17
2019-05-03T19:29:19.536Z,17.37
2019-05-03T19:31:49.299Z,11.08
2019-05-03T19:34:18.239Z,9.30
2019-05-03T19:36:47.128Z,10.25
2019-05-03T19:39:16.405Z,10.72
2019-05-03T19:41:45.301Z,11.53
2019-05-03T19:44:15.130Z,13.30
2019-05-03T19:46:44.504Z,13.32
2019-05-03T19:49:13.631Z,14.30
2019-05-03T19:51:42.622Z,13.60
2019-05-03T19:54:11.600Z,14.38
2019-05-03T19:56:40.498Z,14.58
2019-05-03T19:59:11.137Z,14.83
2019-05-03T20:01:49.242Z,14.65
2019-05-03T20:04:28.676Z,15.05
2019-05-03T20:07:05.360Z,15.72
2019-05-03T20:09:35.065Z,16.45
2019-05-03T20:12:24.593Z,17.67
2019-05-03T20:14:54.613Z,18.12
2019-05-03T20:17:23.855Z,16.45
2019-05-03T20:19:54.367Z,16.62
2019-05-03T20:22:24.475Z,17.55
2019-05-03T20:24:55.169Z,18.17
2019-05-03T20:27:24.426Z,18.10
2019-05-03T20:29:55.312Z,18.70
2019-05-03T20:32:25.172Z,16.27
2019-05-03T20:34:55.132Z,16.93
2019-05-03T20:37:25.097Z,15.95
2019-05-03T20:39:54.537Z,16.15
2019-05-03T20:42:41.742Z,15.65
2019-05-03T20:45:14.317Z,14.35
2019-05-03T20:50:18.246Z,15.05
2019-05-03T20:52:47.238Z,13.08
2019-05-03T20:55:16.209Z,13.48
2019-05-03T20:57:44.999Z,13.62
2019-05-03T21:00:15.155Z,14.38
2019-05-03T21:02:51.518Z,16.48
2019-05-03T21:05:26.817Z,15.83
2019-05-03T21:07:45.550Z,16.15
2019-05-03T21:10:16.024Z,16.80
2019-05-03T21:12:45.018Z,17.48
2019-05-03T21:15:21.387Z,18.00
2019-05-03T21:18:04.893Z,18.27
2019-05-03T21:20:38.289Z,17.50
2019-05-03T21:23:08.911Z,17.82
2019-05-03T21:26:08.200Z,17.48
2019-05-03T21:28:26.593Z,18.23
2019-05-03T21:30:55.477Z,17.05
2019-05-03T21:33:25.808Z,17.82
2019-05-03T21:35:55.695Z,17.75
2019-05-03T21:38:24.718Z,16.75
2019-05-03T21:40:54.637Z,15.78
2019-05-03T21:43:25.586Z,15.90
2019-05-03T21:45:58.581Z,16.30
2019-05-03T21:48:29.029Z,16.55
2019-05-03T21:50:57.980Z,17.00
2019-05-03T21:53:26.971Z,17.67
2019-05-03T21:55:55.845Z,17.15
2019-05-03T21:58:25.095Z,18.02
2019-05-03T22:00:58.656Z,18.15
2019-05-03T22:03:27.550Z,19.27
2019-05-03T22:05:58.055Z,19.12
2019-05-03T22:08:27.072Z,18.10
2019-05-03T22:10:56.065Z,20.02
2019-05-03T22:13:25.058Z,17.70
2019-05-03T22:15:55.489Z,16.37
2019-05-03T22:18:26.097Z,14.78
2019-05-03T22:20:56.645Z,15.83
2019-05-03T22:23:42.326Z,15.25
2019-05-03T22:26:11.212Z,16.45
2019-05-03T22:28:40.216Z,16.97
2019-05-03T22:31:09.206Z,16.93
2019-05-03T22:33:38.206Z,17.17
2019-05-03T22:36:08.948Z,16.82
2019-05-03T22:38:38.536Z,18.32
2019-05-03T22:41:07.485Z,16.85
2019-05-03T22:43:36.442Z,16.35
2019-05-03T22:46:05.410Z,17.48
2019-05-03T22:48:55.108Z,16.10
2019-05-03T22:51:24.449Z,15.35
2019-05-03T22:53:54.975Z,16.70
2019-05-03T22:56:24.858Z,16.57
2019-05-03T22:58:54.771Z,16.45
2019-05-03T23:01:25.565Z,16.07
2019-05-03T23:03:55.063Z,15.00
2019-05-03T23:06:25.184Z,14.40
2019-05-03T23:08:56.020Z,14.63
2019-05-03T23:11:24.744Z,15.25
2019-05-03T23:14:04.626Z,13.80
2019-05-03T23:16:35.411Z,13.43
2019-05-03T23:19:05.556Z,12.40
2019-05-03T23:21:45.595Z,12.90
2019-05-03T23:24:15.433Z,11.75
2019-05-03T23:26:45.127Z,11.65
2019-05-03T23:29:14.309Z,12.68
2019-05-03T23:31:44.857Z,12.15
2019-05-03T23:34:13.943Z,11.88
2019-05-03T23:36:42.932Z,12.10
2019-05-03T23:39:11.925Z,11.83
2019-05-03T23:41:40.814Z,11.93
2019-05-03T23:44:09.705Z,11.97
2019-05-03T23:46:49.140Z,11.40
2019-05-03T23:49:18.036Z,12.20
2019-05-03T23:51:48.571Z,11.57
2019-05-03T23:54:17.561Z,13.15
2019-05-03T23:56:46.552Z,13.80
2019-05-03T23:59:15.552Z,13.70
